sensor_id;sensor_type;location;lat;lon;timestamp;temperature;humidity
18408;DHT22;9330;52.210;21.174;2024-03-06T00:01:52;5.80;99.90
18408;DHT22;9330;52.210;21.174;2024-03-06T00:04:20;5.70;99.90
18408;DHT22;9330;52.210;21.174;2024-03-06T00:06:47;5.70;99.90
18408;DHT22;9330;52.210;21.174;2024-03-06T00:09:14;5.70;99.90
18408;DHT22;9330;52.210;21.174;2024-03-06T00:11:41;5.90;99.90
18408;DHT22;9330;52.210;21.174;2024-03-06T00:14:08;5.80;99.90
18408;DHT22;9330;52.210;21.174;2024-03-06T00:16:37;5.80;99.90
18408;DHT22;9330;52.210;21.174;2024-03-06T00:19:04;5.70;99.90
18408;DHT22;9330;52.210;21.174;2024-03-06T00:21:33;5.70;99.90
18408;DHT22;9330;52.210;21.174;2024-03-06T00:24:00;5.80;99.90
18408;DHT22;9330;52.210;21.174;2024-03-06T00:26:27;5.80;99.90
18408;DHT22;9330;52.210;21.174;2024-03-06T00:28:54;5.80;99.90
18408;DHT22;9330;52.210;21.174;2024-03-06T00:31:21;5.80;99.90
18408;DHT22;9330;52.210;21.174;2024-03-06T00:33:48;5.80;99.90
18408;DHT22;9330;52.210;21.174;2024-03-06T00:36:15;5.90;99.90
18408;DHT22;9330;52.210;21.174;2024-03-06T00:38:43;5.80;99.90
18408;DHT22;9330;52.210;21.174;2024-03-06T00:41:10;5.80;99.90
18408;DHT22;9330;52.210;21.174;2024-03-06T00:43:37;5.90;99.90
18408;DHT22;9330;52.210;21.174;2024-03-06T00:46:04;5.80;99.90
18408;DHT22;9330;52.210;21.174;2024-03-06T00:48:30;5.90;99.90
18408;DHT22;9330;52.210;21.174;2024-03-06T00:50:58;5.90;99.90
18408;DHT22;9330;52.210;21.174;2024-03-06T00:53:25;5.80;99.90
18408;DHT22;9330;52.210;21.174;2024-03-06T00:55:53;5.80;99.90
18408;DHT22;9330;52.210;21.174;2024-03-06T00:58:20;5.90;99.90
18408;DHT22;9330;52.210;21.174;2024-03-06T01:00:47;5.90;99.90
18408;DHT22;9330;52.210;21.174;2024-03-06T01:03:14;5.90;99.90
18408;DHT22;9330;52.210;21.174;2024-03-06T01:05:41;5.90;99.90
18408;DHT22;9330;52.210;21.174;2024-03-06T01:08:08;5.90;99.90
18408;DHT22;9330;52.210;21.174;2024-03-06T01:10:35;5.90;99.90
18408;DHT22;9330;52.210;21.174;2024-03-06T01:13:04;5.90;99.90
18408;DHT22;9330;52.210;21.174;2024-03-06T01:15:31;6.00;99.90
18408;DHT22;9330;52.210;21.174;2024-03-06T01:17:58;5.90;99.90
18408;DHT22;9330;52.210;21.174;2024-03-06T01:20:25;5.90;99.90
18408;DHT22;9330;52.210;21.174;2024-03-06T01:22:52;6.00;99.90
18408;DHT22;9330;52.210;21.174;2024-03-06T01:25:18;5.90;99.90
18408;DHT22;9330;52.210;21.174;2024-03-06T01:27:47;6.00;99.90
18408;DHT22;9330;52.210;21.174;2024-03-06T01:30:16;6.10;99.90
18408;DHT22;9330;52.210;21.174;2024-03-06T01:32:43;6.00;99.90
18408;DHT22;9330;52.210;21.174;2024-03-06T01:35:10;6.00;99.90
18408;DHT22;9330;52.210;21.174;2024-03-06T01:37:36;6.00;99.90
18408;DHT22;9330;52.210;21.174;2024-03-06T01:40:04;6.00;99.90
18408;DHT22;9330;52.210;21.174;2024-03-06T01:42:32;6.00;99.90
18408;DHT22;9330;52.210;21.174;2024-03-06T01:44:59;6.00;99.90
18408;DHT22;9330;52.210;21.174;2024-03-06T01:47:28;6.00;99.90
18408;DHT22;9330;52.210;21.174;2024-03-06T01:49:55;6.00;99.90
18408;DHT22;9330;52.210;21.174;2024-03-06T01:52:22;6.00;99.90
18408;DHT22;9330;52.210;21.174;2024-03-06T01:54:50;6.00;99.90
18408;DHT22;9330;52.210;21.174;2024-03-06T01:57:19;6.00;99.90
18408;DHT22;9330;52.210;21.174;2024-03-06T01:59:46;6.10;99.90
18408;DHT22;9330;52.210;21.174;2024-03-06T02:02:14;6.00;99.90
18408;DHT22;9330;52.210;21.174;2024-03-06T02:04:42;6.10;99.90
18408;DHT22;9330;52.210;21.174;2024-03-06T02:07:10;6.10;99.90
18408;DHT22;9330;52.210;21.174;2024-03-06T02:09:37;6.00;99.90
18408;DHT22;9330;52.210;21.174;2024-03-06T02:12:05;6.10;99.90
18408;DHT22;9330;52.210;21.174;2024-03-06T02:14:34;6.10;99.90
18408;DHT22;9330;52.210;21.174;2024-03-06T02:17:01;6.10;99.90
18408;DHT22;9330;52.210;21.174;2024-03-06T02:19:37;6.10;99.90
18408;DHT22;9330;52.210;21.174;2024-03-06T02:22:05;6.00;99.90
18408;DHT22;9330;52.210;21.174;2024-03-06T02:24:32;6.00;99.90
18408;DHT22;9330;52.210;21.174;2024-03-06T02:26:59;6.10;99.90
18408;DHT22;9330;52.210;21.174;2024-03-06T02:29:26;6.00;99.90
18408;DHT22;9330;52.210;21.174;2024-03-06T02:31:53;6.00;99.90
18408;DHT22;9330;52.210;21.174;2024-03-06T02:34:20;6.00;99.90
18408;DHT22;9330;52.210;21.174;2024-03-06T02:36:47;6.00;99.90
18408;DHT22;9330;52.210;21.174;2024-03-06T02:39:15;6.00;99.90
18408;DHT22;9330;52.210;21.174;2024-03-06T02:41:43;6.00;99.90
18408;DHT22;9330;52.210;21.174;2024-03-06T02:44:10;6.00;99.90
18408;DHT22;9330;52.210;21.174;2024-03-06T02:46:37;6.00;99.90
18408;DHT22;9330;52.210;21.174;2024-03-06T02:49:04;6.00;99.90
18408;DHT22;9330;52.210;21.174;2024-03-06T02:51:31;6.00;99.90
18408;DHT22;9330;52.210;21.174;2024-03-06T02:53:58;6.00;99.90
18408;DHT22;9330;52.210;21.174;2024-03-06T02:56:26;5.90;99.90
18408;DHT22;9330;52.210;21.174;2024-03-06T02:58:53;5.90;99.90
18408;DHT22;9330;52.210;21.174;2024-03-06T03:01:20;5.90;99.90
18408;DHT22;9330;52.210;21.174;2024-03-06T03:03:47;5.90;99.90
18408;DHT22;9330;52.210;21.174;2024-03-06T03:06:14;5.90;99.90
18408;DHT22;9330;52.210;21.174;2024-03-06T03:08:41;5.80;99.90
18408;DHT22;9330;52.210;21.174;2024-03-06T03:11:08;5.90;99.90
18408;DHT22;9330;52.210;21.174;2024-03-06T03:13:37;5.90;99.90
18408;DHT22;9330;52.210;21.174;2024-03-06T03:16:04;5.80;99.90
18408;DHT22;9330;52.210;21.174;2024-03-06T03:18:31;5.90;99.90
18408;DHT22;9330;52.210;21.174;2024-03-06T03:20:58;5.70;99.90
18408;DHT22;9330;52.210;21.174;2024-03-06T03:23:25;5.80;99.90
18408;DHT22;9330;52.210;21.174;2024-03-06T03:25:52;5.90;99.90
18408;DHT22;9330;52.210;21.174;2024-03-06T03:28:18;5.80;99.90
18408;DHT22;9330;52.210;21.174;2024-03-06T03:30:47;6.00;99.90
18408;DHT22;9330;52.210;21.174;2024-03-06T03:33:14;5.80;99.90
18408;DHT22;9330;52.210;21.174;2024-03-06T03:35:41;5.80;99.90
18408;DHT22;9330;52.210;21.174;2024-03-06T03:38:07;5.70;99.90
18408;DHT22;9330;52.210;21.174;2024-03-06T03:40:34;5.80;99.90
18408;DHT22;9330;52.210;21.174;2024-03-06T03:43:01;5.70;99.90
18408;DHT22;9330;52.210;21.174;2024-03-06T03:45:32;5.70;99.90
18408;DHT22;9330;52.210;21.174;2024-03-06T03:48:01;5.70;99.90
18408;DHT22;9330;52.210;21.174;2024-03-06T03:50:29;5.70;99.90
18408;DHT22;9330;52.210;21.174;2024-03-06T03:52:56;5.70;99.90
18408;DHT22;9330;52.210;21.174;2024-03-06T03:55:26;5.60;99.90
18408;DHT22;9330;52.210;21.174;2024-03-06T03:57:53;5.70;99.90
18408;DHT22;9330;52.210;21.174;2024-03-06T04:00:20;5.60;99.90
18408;DHT22;9330;52.210;21.174;2024-03-06T04:02:48;5.60;99.90
18408;DHT22;9330;52.210;21.174;2024-03-06T04:05:16;5.60;99.90
18408;DHT22;9330;52.210;21.174;2024-03-06T04:07:43;5.60;99.90
18408;DHT22;9330;52.210;21.174;2024-03-06T04:10:10;5.50;99.90
18408;DHT22;9330;52.210;21.174;2024-03-06T04:12:37;5.60;99.90
18408;DHT22;9330;52.210;21.174;2024-03-06T04:15:05;5.70;99.90
18408;DHT22;9330;52.210;21.174;2024-03-06T04:17:34;5.60;99.90
18408;DHT22;9330;52.210;21.174;2024-03-06T04:20:04;5.50;99.90
18408;DHT22;9330;52.210;21.174;2024-03-06T04:22:33;5.60;99.90
18408;DHT22;9330;52.210;21.174;2024-03-06T04:25:00;5.50;99.90
18408;DHT22;9330;52.210;21.174;2024-03-06T04:27:29;5.50;99.90
18408;DHT22;9330;52.210;21.174;2024-03-06T04:29:56;5.50;99.90
18408;DHT22;9330;52.210;21.174;2024-03-06T04:32:23;5.50;99.90
18408;DHT22;9330;52.210;21.174;2024-03-06T04:34:50;5.50;99.90
18408;DHT22;9330;52.210;21.174;2024-03-06T04:37:17;5.50;99.90
18408;DHT22;9330;52.210;21.174;2024-03-06T04:39:45;5.50;99.90
18408;DHT22;9330;52.210;21.174;2024-03-06T04:42:13;5.40;99.90
18408;DHT22;9330;52.210;21.174;2024-03-06T04:44:40;5.40;99.90
18408;DHT22;9330;52.210;21.174;2024-03-06T04:47:08;5.40;99.90
18408;DHT22;9330;52.210;21.174;2024-03-06T04:49:35;5.40;99.90
18408;DHT22;9330;52.210;21.174;2024-03-06T04:52:02;5.40;99.90
18408;DHT22;9330;52.210;21.174;2024-03-06T04:54:30;5.40;99.90
18408;DHT22;9330;52.210;21.174;2024-03-06T04:56:58;5.40;99.90
18408;DHT22;9330;52.210;21.174;2024-03-06T04:59:25;5.40;99.90
18408;DHT22;9330;52.210;21.174;2024-03-06T05:01:52;5.40;99.90
18408;DHT22;9330;52.210;21.174;2024-03-06T05:04:19;5.40;99.90
18408;DHT22;9330;52.210;21.174;2024-03-06T05:06:47;5.40;99.90
18408;DHT22;9330;52.210;21.174;2024-03-06T05:09:13;5.50;99.90
18408;DHT22;9330;52.210;21.174;2024-03-06T05:11:40;5.40;99.90
18408;DHT22;9330;52.210;21.174;2024-03-06T05:14:08;5.50;99.90
18408;DHT22;9330;52.210;21.174;2024-03-06T05:16:35;5.40;99.90
18408;DHT22;9330;52.210;21.174;2024-03-06T05:19:02;5.30;99.90
18408;DHT22;9330;52.210;21.174;2024-03-06T05:21:30;5.30;99.90
18408;DHT22;9330;52.210;21.174;2024-03-06T05:23:57;5.40;99.90
18408;DHT22;9330;52.210;21.174;2024-03-06T05:26:24;5.40;99.90
18408;DHT22;9330;52.210;21.174;2024-03-06T05:28:50;5.40;99.90
18408;DHT22;9330;52.210;21.174;2024-03-06T05:31:19;5.30;99.90
18408;DHT22;9330;52.210;21.174;2024-03-06T05:33:47;5.20;99.90
18408;DHT22;9330;52.210;21.174;2024-03-06T05:36:15;5.30;99.90
18408;DHT22;9330;52.210;21.174;2024-03-06T05:38:43;5.30;99.90
18408;DHT22;9330;52.210;21.174;2024-03-06T05:41:10;5.20;99.90
18408;DHT22;9330;52.210;21.174;2024-03-06T05:43:37;5.20;99.90
18408;DHT22;9330;52.210;21.174;2024-03-06T05:46:04;5.10;99.90
18408;DHT22;9330;52.210;21.174;2024-03-06T05:48:32;5.10;99.90
18408;DHT22;9330;52.210;21.174;2024-03-06T05:50:59;5.20;99.90
18408;DHT22;9330;52.210;21.174;2024-03-06T05:53:26;5.10;99.90
18408;DHT22;9330;52.210;21.174;2024-03-06T05:55:53;5.20;99.90
18408;DHT22;9330;52.210;21.174;2024-03-06T05:58:20;5.10;99.90
18408;DHT22;9330;52.210;21.174;2024-03-06T06:00:47;5.10;99.90
18408;DHT22;9330;52.210;21.174;2024-03-06T06:03:14;5.10;99.90
18408;DHT22;9330;52.210;21.174;2024-03-06T06:05:43;5.20;99.90
18408;DHT22;9330;52.210;21.174;2024-03-06T06:08:10;5.10;99.90
18408;DHT22;9330;52.210;21.174;2024-03-06T06:10:36;5.10;99.90
18408;DHT22;9330;52.210;21.174;2024-03-06T06:13:04;5.10;99.90
18408;DHT22;9330;52.210;21.174;2024-03-06T06:15:31;5.20;99.90
18408;DHT22;9330;52.210;21.174;2024-03-06T06:17:58;5.20;99.90
18408;DHT22;9330;52.210;21.174;2024-03-06T06:20:25;5.20;99.90
18408;DHT22;9330;52.210;21.174;2024-03-06T06:22:53;5.20;99.90
18408;DHT22;9330;52.210;21.174;2024-03-06T06:25:20;5.20;99.90
18408;DHT22;9330;52.210;21.174;2024-03-06T06:27:47;5.30;99.90
18408;DHT22;9330;52.210;21.174;2024-03-06T06:30:15;5.10;99.90
18408;DHT22;9330;52.210;21.174;2024-03-06T06:32:42;5.30;99.90
18408;DHT22;9330;52.210;21.174;2024-03-06T06:35:10;5.30;99.90
18408;DHT22;9330;52.210;21.174;2024-03-06T06:37:39;5.30;99.90
18408;DHT22;9330;52.210;21.174;2024-03-06T06:40:08;5.40;99.90
18408;DHT22;9330;52.210;21.174;2024-03-06T06:42:37;5.30;99.90
18408;DHT22;9330;52.210;21.174;2024-03-06T06:45:05;5.40;99.90
18408;DHT22;9330;52.210;21.174;2024-03-06T06:47:35;5.40;99.90
18408;DHT22;9330;52.210;21.174;2024-03-06T06:50:02;5.30;99.90
18408;DHT22;9330;52.210;21.174;2024-03-06T06:52:31;5.30;99.90
18408;DHT22;9330;52.210;21.174;2024-03-06T06:54:59;5.30;99.90
18408;DHT22;9330;52.210;21.174;2024-03-06T06:57:27;5.30;99.90
18408;DHT22;9330;52.210;21.174;2024-03-06T06:59:53;5.30;99.90
18408;DHT22;9330;52.210;21.174;2024-03-06T07:02:20;5.40;99.90
18408;DHT22;9330;52.210;21.174;2024-03-06T07:04:47;5.30;99.90
18408;DHT22;9330;52.210;21.174;2024-03-06T07:07:15;5.30;99.90
18408;DHT22;9330;52.210;21.174;2024-03-06T07:09:42;5.30;99.90
18408;DHT22;9330;52.210;21.174;2024-03-06T07:12:09;5.30;99.90
18408;DHT22;9330;52.210;21.174;2024-03-06T07:14:37;5.30;99.90
18408;DHT22;9330;52.210;21.174;2024-03-06T07:17:04;5.30;99.90
18408;DHT22;9330;52.210;21.174;2024-03-06T07:19:31;5.30;99.90
18408;DHT22;9330;52.210;21.174;2024-03-06T07:21:58;5.30;99.90
18408;DHT22;9330;52.210;21.174;2024-03-06T07:24:25;5.30;99.90
18408;DHT22;9330;52.210;21.174;2024-03-06T07:26:52;5.30;99.90
18408;DHT22;9330;52.210;21.174;2024-03-06T07:29:18;5.30;99.90
18408;DHT22;9330;52.210;21.174;2024-03-06T07:31:47;5.30;99.90
18408;DHT22;9330;52.210;21.174;2024-03-06T07:34:14;5.30;99.90
18408;DHT22;9330;52.210;21.174;2024-03-06T07:36:41;5.30;99.90
18408;DHT22;9330;52.210;21.174;2024-03-06T07:39:08;5.30;99.90
18408;DHT22;9330;52.210;21.174;2024-03-06T07:41:35;5.30;99.90
18408;DHT22;9330;52.210;21.174;2024-03-06T07:44:01;5.30;99.90
18408;DHT22;9330;52.210;21.174;2024-03-06T07:46:29;5.40;99.90
18408;DHT22;9330;52.210;21.174;2024-03-06T07:48:57;5.30;99.90
18408;DHT22;9330;52.210;21.174;2024-03-06T07:51:24;5.40;99.90
18408;DHT22;9330;52.210;21.174;2024-03-06T07:53:51;5.30;99.90
18408;DHT22;9330;52.210;21.174;2024-03-06T07:56:18;5.30;99.90
18408;DHT22;9330;52.210;21.174;2024-03-06T07:58:45;5.30;99.90
18408;DHT22;9330;52.210;21.174;2024-03-06T08:01:12;5.30;99.90
18408;DHT22;9330;52.210;21.174;2024-03-06T08:03:39;5.30;99.90
18408;DHT22;9330;52.210;21.174;2024-03-06T08:06:09;5.30;99.90
18408;DHT22;9330;52.210;21.174;2024-03-06T08:08:40;5.30;99.90
18408;DHT22;9330;52.210;21.174;2024-03-06T08:11:07;5.20;99.90
18408;DHT22;9330;52.210;21.174;2024-03-06T08:13:36;5.10;99.90
18408;DHT22;9330;52.210;21.174;2024-03-06T08:16:03;5.10;99.90
18408;DHT22;9330;52.210;21.174;2024-03-06T08:18:30;5.00;99.90
18408;DHT22;9330;52.210;21.174;2024-03-06T08:20:58;5.00;99.90
18408;DHT22;9330;52.210;21.174;2024-03-06T08:23:26;5.10;99.90
18408;DHT22;9330;52.210;21.174;2024-03-06T08:25:53;5.00;99.90
18408;DHT22;9330;52.210;21.174;2024-03-06T08:28:20;5.00;99.90
18408;DHT22;9330;52.210;21.174;2024-03-06T08:30:47;5.00;99.90
18408;DHT22;9330;52.210;21.174;2024-03-06T08:33:17;5.00;99.90
18408;DHT22;9330;52.210;21.174;2024-03-06T08:35:44;5.00;99.90
18408;DHT22;9330;52.210;21.174;2024-03-06T08:38:11;5.00;99.90
18408;DHT22;9330;52.210;21.174;2024-03-06T08:40:39;5.00;99.90
18408;DHT22;9330;52.210;21.174;2024-03-06T08:43:08;5.00;99.90
18408;DHT22;9330;52.210;21.174;2024-03-06T08:45:35;5.00;99.90
18408;DHT22;9330;52.210;21.174;2024-03-06T08:48:02;5.00;99.90
18408;DHT22;9330;52.210;21.174;2024-03-06T08:50:29;5.00;99.90
18408;DHT22;9330;52.210;21.174;2024-03-06T08:52:56;5.00;99.90
18408;DHT22;9330;52.210;21.174;2024-03-06T08:55:23;5.20;99.90
18408;DHT22;9330;52.210;21.174;2024-03-06T08:57:51;5.10;99.90
18408;DHT22;9330;52.210;21.174;2024-03-06T09:00:18;5.10;99.90
18408;DHT22;9330;52.210;21.174;2024-03-06T09:02:45;5.10;99.90
18408;DHT22;9330;52.210;21.174;2024-03-06T09:05:12;5.20;99.90
18408;DHT22;9330;52.210;21.174;2024-03-06T09:07:39;5.20;99.90
18408;DHT22;9330;52.210;21.174;2024-03-06T09:10:07;5.20;99.90
18408;DHT22;9330;52.210;21.174;2024-03-06T09:12:35;5.20;99.90
18408;DHT22;9330;52.210;21.174;2024-03-06T09:15:04;5.20;99.90
18408;DHT22;9330;52.210;21.174;2024-03-06T09:17:33;5.20;99.90
18408;DHT22;9330;52.210;21.174;2024-03-06T09:20:00;5.20;99.90
18408;DHT22;9330;52.210;21.174;2024-03-06T09:22:35;5.30;99.90
18408;DHT22;9330;52.210;21.174;2024-03-06T09:25:03;5.10;99.90
18408;DHT22;9330;52.210;21.174;2024-03-06T09:27:30;5.10;99.90
18408;DHT22;9330;52.210;21.174;2024-03-06T09:29:58;5.10;99.90
18408;DHT22;9330;52.210;21.174;2024-03-06T09:32:26;5.10;99.90
18408;DHT22;9330;52.210;21.174;2024-03-06T09:34:53;5.00;99.90
18408;DHT22;9330;52.210;21.174;2024-03-06T09:37:20;5.00;99.90
18408;DHT22;9330;52.210;21.174;2024-03-06T09:39:47;5.10;99.90
18408;DHT22;9330;52.210;21.174;2024-03-06T09:42:14;5.10;99.90
18408;DHT22;9330;52.210;21.174;2024-03-06T09:44:41;5.00;99.90
18408;DHT22;9330;52.210;21.174;2024-03-06T09:47:13;5.00;99.90
18408;DHT22;9330;52.210;21.174;2024-03-06T09:49:41;5.10;99.90
18408;DHT22;9330;52.210;21.174;2024-03-06T09:52:10;5.00;99.90
18408;DHT22;9330;52.210;21.174;2024-03-06T09:54:37;5.10;99.90
18408;DHT22;9330;52.210;21.174;2024-03-06T09:57:06;5.00;99.90
18408;DHT22;9330;52.210;21.174;2024-03-06T09:59:33;5.00;99.90
18408;DHT22;9330;52.210;21.174;2024-03-06T10:02:02;5.00;99.90
18408;DHT22;9330;52.210;21.174;2024-03-06T10:04:33;5.00;99.90
18408;DHT22;9330;52.210;21.174;2024-03-06T10:07:04;4.90;99.90
18408;DHT22;9330;52.210;21.174;2024-03-06T10:09:33;5.00;99.90
18408;DHT22;9330;52.210;21.174;2024-03-06T10:12:00;5.10;99.90
18408;DHT22;9330;52.210;21.174;2024-03-06T10:14:27;5.00;99.90
18408;DHT22;9330;52.210;21.174;2024-03-06T10:16:56;5.10;99.90
18408;DHT22;9330;52.210;21.174;2024-03-06T10:19:25;5.10;99.90
18408;DHT22;9330;52.210;21.174;2024-03-06T10:21:53;5.10;99.90
18408;DHT22;9330;52.210;21.174;2024-03-06T10:24:22;5.00;99.90
18408;DHT22;9330;52.210;21.174;2024-03-06T10:26:50;5.00;99.90
18408;DHT22;9330;52.210;21.174;2024-03-06T10:29:20;5.00;99.90
18408;DHT22;9330;52.210;21.174;2024-03-06T10:31:48;5.00;99.90
18408;DHT22;9330;52.210;21.174;2024-03-06T10:34:16;5.00;99.90
18408;DHT22;9330;52.210;21.174;2024-03-06T10:36:43;5.00;99.90
18408;DHT22;9330;52.210;21.174;2024-03-06T10:39:11;5.10;99.90
18408;DHT22;9330;52.210;21.174;2024-03-06T10:41:42;5.00;99.90
18408;DHT22;9330;52.210;21.174;2024-03-06T10:44:12;5.00;99.90
18408;DHT22;9330;52.210;21.174;2024-03-06T10:46:44;5.10;99.90
18408;DHT22;9330;52.210;21.174;2024-03-06T10:49:13;5.10;99.90
18408;DHT22;9330;52.210;21.174;2024-03-06T10:51:42;5.00;99.90
18408;DHT22;9330;52.210;21.174;2024-03-06T10:54:11;5.10;99.90
18408;DHT22;9330;52.210;21.174;2024-03-06T10:56:40;5.10;99.90
18408;DHT22;9330;52.210;21.174;2024-03-06T10:59:11;5.30;99.90
18408;DHT22;9330;52.210;21.174;2024-03-06T11:01:39;5.20;99.90
18408;DHT22;9330;52.210;21.174;2024-03-06T11:04:09;5.20;99.90
18408;DHT22;9330;52.210;21.174;2024-03-06T11:06:38;5.20;99.90
18408;DHT22;9330;52.210;21.174;2024-03-06T11:09:05;5.30;99.90
18408;DHT22;9330;52.210;21.174;2024-03-06T11:11:49;5.30;99.90
18408;DHT22;9330;52.210;21.174;2024-03-06T11:14:17;5.40;99.90
18408;DHT22;9330;52.210;21.174;2024-03-06T11:16:58;5.40;99.90
18408;DHT22;9330;52.210;21.174;2024-03-06T11:19:26;5.50;99.90
18408;DHT22;9330;52.210;21.174;2024-03-06T11:21:53;5.50;99.90
18408;DHT22;9330;52.210;21.174;2024-03-06T11:24:21;5.50;99.90
18408;DHT22;9330;52.210;21.174;2024-03-06T11:26:57;5.60;99.90
18408;DHT22;9330;52.210;21.174;2024-03-06T11:29:27;5.60;99.90
18408;DHT22;9330;52.210;21.174;2024-03-06T11:32:03;5.70;1.00
18408;DHT22;9330;52.210;21.174;2024-03-06T11:34:33;5.70;29.60
18408;DHT22;9330;52.210;21.174;2024-03-06T11:37:03;5.80;1.00
18408;DHT22;9330;52.210;21.174;2024-03-06T11:39:35;5.80;1.00
18408;DHT22;9330;52.210;21.174;2024-03-06T11:42:04;6.00;99.90
18408;DHT22;9330;52.210;21.174;2024-03-06T11:44:34;6.10;77.90
18408;DHT22;9330;52.210;21.174;2024-03-06T11:47:02;6.10;99.90
18408;DHT22;9330;52.210;21.174;2024-03-06T11:49:30;6.30;1.00
18408;DHT22;9330;52.210;21.174;2024-03-06T11:52:00;6.30;1.00
18408;DHT22;9330;52.210;21.174;2024-03-06T11:54:28;6.50;1.00
18408;DHT22;9330;52.210;21.174;2024-03-06T11:56:56;6.60;1.00
18408;DHT22;9330;52.210;21.174;2024-03-06T11:59:26;6.60;99.90
18408;DHT22;9330;52.210;21.174;2024-03-06T12:01:53;6.70;1.00
18408;DHT22;9330;52.210;21.174;2024-03-06T12:04:21;6.70;1.00
18408;DHT22;9330;52.210;21.174;2024-03-06T12:06:49;6.70;1.00
18408;DHT22;9330;52.210;21.174;2024-03-06T12:09:17;6.90;1.00
18408;DHT22;9330;52.210;21.174;2024-03-06T12:11:44;6.90;1.00
18408;DHT22;9330;52.210;21.174;2024-03-06T12:14:14;7.00;99.90
18408;DHT22;9330;52.210;21.174;2024-03-06T12:16:54;7.10;99.90
18408;DHT22;9330;52.210;21.174;2024-03-06T12:19:22;7.10;1.00
18408;DHT22;9330;52.210;21.174;2024-03-06T12:21:50;6.90;1.00
18408;DHT22;9330;52.210;21.174;2024-03-06T12:24:17;7.10;99.90
18408;DHT22;9330;52.210;21.174;2024-03-06T12:26:45;7.10;1.00
18408;DHT22;9330;52.210;21.174;2024-03-06T12:29:17;7.10;99.90
18408;DHT22;9330;52.210;21.174;2024-03-06T12:31:47;6.90;1.00
18408;DHT22;9330;52.210;21.174;2024-03-06T12:34:14;6.90;27.30
18408;DHT22;9330;52.210;21.174;2024-03-06T12:36:42;6.90;92.70
18408;DHT22;9330;52.210;21.174;2024-03-06T12:39:09;6.90;1.00
18408;DHT22;9330;52.210;21.174;2024-03-06T12:41:39;6.90;99.90
18408;DHT22;9330;52.210;21.174;2024-03-06T12:44:06;6.90;99.90
18408;DHT22;9330;52.210;21.174;2024-03-06T12:46:33;6.80;45.60
18408;DHT22;9330;52.210;21.174;2024-03-06T12:49:02;6.80;99.90
18408;DHT22;9330;52.210;21.174;2024-03-06T12:51:29;6.80;1.00
18408;DHT22;9330;52.210;21.174;2024-03-06T12:53:57;6.60;1.00
18408;DHT22;9330;52.210;21.174;2024-03-06T12:56:24;6.70;47.00
18408;DHT22;9330;52.210;21.174;2024-03-06T12:58:51;6.60;68.60
18408;DHT22;9330;52.210;21.174;2024-03-06T13:01:18;6.50;1.00
18408;DHT22;9330;52.210;21.174;2024-03-06T13:03:45;6.40;1.00
18408;DHT22;9330;52.210;21.174;2024-03-06T13:06:14;6.30;1.00
18408;DHT22;9330;52.210;21.174;2024-03-06T13:08:41;6.30;1.00
18408;DHT22;9330;52.210;21.174;2024-03-06T13:11:08;6.30;1.00
18408;DHT22;9330;52.210;21.174;2024-03-06T13:13:35;6.20;1.00
18408;DHT22;9330;52.210;21.174;2024-03-06T13:16:02;6.10;1.00
18408;DHT22;9330;52.210;21.174;2024-03-06T13:18:29;6.20;1.00
18408;DHT22;9330;52.210;21.174;2024-03-06T13:20:55;6.10;1.00
18408;DHT22;9330;52.210;21.174;2024-03-06T13:23:25;6.10;1.00
18408;DHT22;9330;52.210;21.174;2024-03-06T13:25:52;6.10;1.00
18408;DHT22;9330;52.210;21.174;2024-03-06T13:28:18;6.10;1.00
18408;DHT22;9330;52.210;21.174;2024-03-06T13:30:47;6.00;1.00
18408;DHT22;9330;52.210;21.174;2024-03-06T13:33:16;6.10;1.00
18408;DHT22;9330;52.210;21.174;2024-03-06T13:35:43;6.00;1.00
18408;DHT22;9330;52.210;21.174;2024-03-06T13:38:09;6.10;99.90
18408;DHT22;9330;52.210;21.174;2024-03-06T13:40:38;6.10;1.00
18408;DHT22;9330;52.210;21.174;2024-03-06T13:43:05;6.10;1.00
18408;DHT22;9330;52.210;21.174;2024-03-06T13:45:32;6.10;99.90
18408;DHT22;9330;52.210;21.174;2024-03-06T13:47:59;6.10;99.90
18408;DHT22;9330;52.210;21.174;2024-03-06T13:50:26;6.00;99.90
18408;DHT22;9330;52.210;21.174;2024-03-06T13:52:55;6.10;1.00
18408;DHT22;9330;52.210;21.174;2024-03-06T13:55:22;6.10;99.90
18408;DHT22;9330;52.210;21.174;2024-03-06T13:57:50;6.10;31.00
18408;DHT22;9330;52.210;21.174;2024-03-06T14:00:18;6.10;44.70
18408;DHT22;9330;52.210;21.174;2024-03-06T14:02:45;6.00;20.20
18408;DHT22;9330;52.210;21.174;2024-03-06T14:05:12;6.10;1.00
18408;DHT22;9330;52.210;21.174;2024-03-06T14:07:40;6.10;1.00
18408;DHT22;9330;52.210;21.174;2024-03-06T14:10:08;6.10;1.00
18408;DHT22;9330;52.210;21.174;2024-03-06T14:12:36;6.10;1.00
18408;DHT22;9330;52.210;21.174;2024-03-06T14:15:05;6.10;1.00
18408;DHT22;9330;52.210;21.174;2024-03-06T14:17:34;6.10;1.00
18408;DHT22;9330;52.210;21.174;2024-03-06T14:20:01;6.10;1.00
18408;DHT22;9330;52.210;21.174;2024-03-06T14:22:29;6.00;1.00
18408;DHT22;9330;52.210;21.174;2024-03-06T14:24:55;6.10;1.00
18408;DHT22;9330;52.210;21.174;2024-03-06T14:27:22;6.10;1.00
18408;DHT22;9330;52.210;21.174;2024-03-06T14:29:49;6.00;99.90
18408;DHT22;9330;52.210;21.174;2024-03-06T14:32:19;6.00;1.00
18408;DHT22;9330;52.210;21.174;2024-03-06T14:34:46;5.90;1.00
18408;DHT22;9330;52.210;21.174;2024-03-06T14:37:13;5.80;1.00
18408;DHT22;9330;52.210;21.174;2024-03-06T14:39:40;5.70;99.90
18408;DHT22;9330;52.210;21.174;2024-03-06T14:42:07;5.70;99.90
18408;DHT22;9330;52.210;21.174;2024-03-06T14:44:34;5.60;99.90
18408;DHT22;9330;52.210;21.174;2024-03-06T14:47:01;5.50;1.00
18408;DHT22;9330;52.210;21.174;2024-03-06T14:49:29;5.50;99.90
18408;DHT22;9330;52.210;21.174;2024-03-06T14:51:56;5.50;1.00
18408;DHT22;9330;52.210;21.174;2024-03-06T14:54:23;5.50;1.00
18408;DHT22;9330;52.210;21.174;2024-03-06T14:56:51;5.40;1.00
18408;DHT22;9330;52.210;21.174;2024-03-06T14:59:18;5.50;1.00
18408;DHT22;9330;52.210;21.174;2024-03-06T15:01:45;5.50;1.00
18408;DHT22;9330;52.210;21.174;2024-03-06T15:04:13;5.40;1.00
18408;DHT22;9330;52.210;21.174;2024-03-06T15:06:42;5.40;1.00
18408;DHT22;9330;52.210;21.174;2024-03-06T15:09:08;5.50;1.00
18408;DHT22;9330;52.210;21.174;2024-03-06T15:11:37;5.40;1.00
18408;DHT22;9330;52.210;21.174;2024-03-06T15:14:04;5.40;1.00
18408;DHT22;9330;52.210;21.174;2024-03-06T15:16:33;5.40;99.90
18408;DHT22;9330;52.210;21.174;2024-03-06T15:19:00;5.40;99.90
18408;DHT22;9330;52.210;21.174;2024-03-06T15:21:28;5.40;99.90
18408;DHT22;9330;52.210;21.174;2024-03-06T15:23:57;5.40;99.90
18408;DHT22;9330;52.210;21.174;2024-03-06T15:26:24;5.40;18.90
18408;DHT22;9330;52.210;21.174;2024-03-06T15:28:51;5.40;99.90
18408;DHT22;9330;52.210;21.174;2024-03-06T15:31:18;5.40;1.00
18408;DHT22;9330;52.210;21.174;2024-03-06T15:33:45;5.40;72.50
18408;DHT22;9330;52.210;21.174;2024-03-06T15:36:14;5.40;1.00
18408;DHT22;9330;52.210;21.174;2024-03-06T15:38:41;5.40;1.00
18408;DHT22;9330;52.210;21.174;2024-03-06T15:41:09;5.40;1.00
18408;DHT22;9330;52.210;21.174;2024-03-06T15:43:36;5.40;99.90
18408;DHT22;9330;52.210;21.174;2024-03-06T15:46:04;5.30;99.90
18408;DHT22;9330;52.210;21.174;2024-03-06T15:48:30;5.30;99.90
18408;DHT22;9330;52.210;21.174;2024-03-06T15:50:59;5.30;99.90
18408;DHT22;9330;52.210;21.174;2024-03-06T15:53:26;5.30;56.50